Vremea mâine în Săliștea De Sus - Romania

Vrei sa afli care e starea vremii acum in Maramures - Romania? Dorim sa iti furnizam starea vremii pentru Maramures - Romania. Starea vremii Maramures - Romania pentru astazi.

Vremea mâine în Săliștea De Sus

Temperatura minimă:
7.2 °C

Temperatura maximă:
21.1 °C

Mâine va fi: Patchy rain nearby
Precipitații: 84 %
Umiditate: 64%
Viteza maximă vânt mâine:
14 km/h

Evoluția vremii in Săliștea De Sus pe ore mâine

Ora: 03:00
Temperatura: °C
Sansa de precipitatii: %
Ora Descriere Temp Se simte Precipitatii Umiditate Vant
00:00Senin8.1°7.7°0%75%ENE 4.7 KM/H
01:00Senin7.4°0%74%ENE 5 KM/H
02:00Senin7.9°7.3°0%74%ENE 5 KM/H
03:00Senin7.8°7.1°0%74%ENE 5.4 KM/H
04:00Senin7.7°6.9°0%73%ENE 5.8 KM/H
05:00Senin7.5°6.8°0%73%E 5.4 KM/H
06:00Senin7.2°6.8°0%74%E 4.7 KM/H
07:00Senin8.5°8.2°0%72%E 4.7 KM/H
08:00Senin14.4°14.4°0%63%SSE 2.2 KM/H
09:00Senin16.7°16.7°0%56%SW 4.3 KM/H
10:00Senin18.3°18.3°0%49%WSW 6.1 KM/H
11:00Senin19.3°19.3°0%44%WSW 7.2 KM/H
12:00Senin20.2°20.2°0%40%SW 8.6 KM/H
13:00Senin20.9°20.9°0%37%SW 11.2 KM/H
14:00Senin21.1°21.1°0%37%SW 13.3 KM/H
15:00Senin21.1°21.1°0%37%WSW 13.7 KM/H
16:00Senin20.8°20.8°0%38%WSW 14 KM/H
17:00Senin20.2°20.2°0%42%WSW 13 KM/H
18:00Patchy light rain in area with thunder18.4°18.4°100%56%W 11.5 KM/H
19:00Patchy rain nearby14.4°14.3°100%83%W 6.8 KM/H
20:00Patchy rain nearby10.9°10.9°100%87%NW 1.8 KM/H
21:00Patchy rain nearby65%89%NNE 4 KM/H
22:00Senin8.3°7.9°0%89%NE 4.7 KM/H
23:007.9°7.5°0%89%NE 4.7 KM/H




tutorials